Time;durP1;ratioP1;P1;durP2;ratioP2;P2;SDS_P1;SDS_P2;PMS_P1;PMS_P2;Temp;Humidity;BMP_temperature;BMP_pressure;BME280_temperature;BME280_humidity;BME280_pressure;Samples;Min_cycle;Max_cycle;Signal;HPM_P1;HPM_P2
2021/07/20 00:00:36;;;;;;;12.00;8.60;;;26.70;72.20;;;;;;5054919;28;20482;-72
2021/07/20 00:03:02;;;;;;;22.45;10.15;;;26.70;72.30;;;;;;5054807;28;20025;-72
2021/07/20 00:05:29;;;;;;;17.88;9.45;;;26.70;72.40;;;;;;5053662;28;20033;-72
2021/07/20 00:08:00;;;;;;;12.65;9.45;;;26.70;72.50;;;;;;5054603;28;20025;-71
2021/07/20 00:10:51;;;;;;;16.05;9.68;;;26.70;73.20;;;;;;5054559;28;20059;-72
2021/07/20 00:13:17;;;;;;;13.55;9.27;;;26.70;72.60;;;;;;5054376;28;20098;-71
2021/07/20 00:15:44;;;;;;;19.98;10.23;;;26.70;72.60;;;;;;5054472;28;20033;-71
2021/07/20 00:18:13;;;;;;;13.60;9.30;;;26.70;72.80;;;;;;5054278;28;20036;-70
2021/07/20 00:20:39;;;;;;;16.85;9.55;;;26.70;72.70;;;;;;5054329;28;20055;-72
2021/07/20 00:23:06;;;;;;;15.23;10.43;;;26.70;72.70;;;;;;5054323;28;20471;-72
2021/07/20 00:25:32;;;;;;;14.98;9.40;;;26.70;72.50;;;;;;5054211;28;20029;-72
2021/07/20 00:27:59;;;;;;;15.45;9.05;;;26.70;72.40;;;;;;5054091;28;20029;-72
2021/07/20 00:30:24;;;;;;;15.50;9.98;;;26.70;72.50;;;;;;5053719;28;20410;-72
2021/07/20 00:32:51;;;;;;;15.32;9.75;;;26.70;72.60;;;;;;5054191;28;20029;-72
2021/07/20 00:35:16;;;;;;;12.75;9.15;;;26.70;72.70;;;;;;5054170;28;20029;-72
2021/07/20 00:37:42;;;;;;;17.67;9.18;;;26.70;72.80;;;;;;5054058;28;20028;-72
2021/07/20 00:40:14;;;;;;;14.98;8.75;;;26.60;72.70;;;;;;5054058;28;20391;-72
2021/07/20 00:42:40;;;;;;;12.98;9.07;;;26.60;72.70;;;;;;5053751;28;20017;-72
2021/07/20 00:45:10;;;;;;;16.50;9.35;;;26.60;72.70;;;;;;5053893;28;20027;-72
2021/07/20 00:47:36;;;;;;;16.38;9.68;;;26.60;72.70;;;;;;5053561;28;20105;-72
2021/07/20 00:50:04;;;;;;;16.98;10.55;;;26.60;72.70;;;;;;5053894;28;20137;-72
2021/07/20 00:52:30;;;;;;;18.40;10.35;;;26.60;72.80;;;;;;5054626;28;20056;-73
2021/07/20 00:54:56;;;;;;;17.77;10.07;;;26.60;72.80;;;;;;5053828;28;20086;-72
2021/07/20 00:57:23;;;;;;;21.95;10.15;;;26.50;72.80;;;;;;5069234;28;20471;-72
2021/07/20 00:59:49;;;;;;;14.70;10.07;;;26.50;73.00;;;;;;5053752;28;20029;-73
2021/07/20 01:02:15;;;;;;;18.75;9.70;;;26.40;73.10;;;;;;5054487;28;20074;-73
2021/07/20 01:04:41;;;;;;;14.48;9.20;;;26.40;73.30;;;;;;5053949;28;20451;-72
2021/07/20 01:07:08;;;;;;;17.17;8.88;;;26.40;73.30;;;;;;5053563;28;20076;-72
2021/07/20 01:09:34;;;;;;;16.25;9.43;;;26.40;73.20;;;;;;5053281;28;20040;-73
2021/07/20 01:12:01;;;;;;;15.77;10.48;;;26.40;73.30;;;;;;5053675;28;20025;-72
2021/07/20 01:14:27;;;;;;;13.32;8.77;;;26.30;73.10;;;;;;5053809;28;20035;-72
2021/07/20 01:16:56;;;;;;;14.45;9.00;;;26.40;73.20;;;;;;5053974;28;20021;-72
2021/07/20 01:19:26;;;;;;;15.55;9.02;;;26.40;73.10;;;;;;5053480;28;20020;-72
2021/07/20 01:21:53;;;;;;;13.82;8.93;;;26.40;73.00;;;;;;5053368;28;20040;-72
2021/07/20 01:24:19;;;;;;;17.35;9.35;;;26.40;72.90;;;;;;5053326;28;20086;-72
2021/07/20 01:26:46;;;;;;;18.30;8.98;;;26.40;72.80;;;;;;5053277;28;20163;-72
2021/07/20 01:29:12;;;;;;;13.45;9.02;;;26.40;72.60;;;;;;5052989;28;20479;-72
2021/07/20 01:31:41;;;;;;;15.20;9.48;;;26.40;72.30;;;;;;5053290;28;20028;-72
2021/07/20 01:34:10;;;;;;;15.63;8.55;;;26.40;72.40;;;;;;5053793;28;20035;-72
2021/07/20 01:36:36;;;;;;;14.43;8.75;;;26.30;72.40;;;;;;5053146;28;20112;-73
2021/07/20 01:39:06;;;;;;;16.85;9.35;;;26.30;72.40;;;;;;5053518;28;20035;-72
2021/07/20 01:41:32;;;;;;;12.45;9.15;;;26.30;72.40;;;;;;5053264;28;20104;-73
2021/07/20 01:44:05;;;;;;;14.73;9.02;;;26.30;72.40;;;;;;5057053;28;20048;-72
2021/07/20 01:46:32;;;;;;;16.83;9.40;;;26.30;72.40;;;;;;5057286;28;20040;-72
2021/07/20 01:49:01;;;;;;;11.18;8.25;;;26.40;72.50;;;;;;5057223;28;20029;-72
2021/07/20 01:51:27;;;;;;;16.35;8.43;;;26.40;72.50;;;;;;5057442;28;20112;-72
2021/07/20 01:53:54;;;;;;;15.32;8.98;;;26.30;72.40;;;;;;5057884;28;20076;-72
2021/07/20 01:56:21;;;;;;;10.93;8.00;;;26.30;72.40;;;;;;5057854;28;20330;-72
2021/07/20 01:58:47;;;;;;;12.90;8.70;;;26.30;72.50;;;;;;5057073;28;20036;-73
2021/07/20 02:01:35;;;;;;;18.80;8.50;;;26.30;72.60;;;;;;5057293;28;20104;-72
2021/07/20 02:04:21;;;;;;;13.70;7.85;;;26.30;72.60;;;;;;5056944;28;20032;-72
2021/07/20 02:09:35;;;;;;;13.02;8.60;;;26.30;72.70;;;;;;5056883;28;20112;-72
2021/07/20 02:12:13;;;;;;;12.93;7.97;;;26.30;72.80;;;;;;5057351;28;20037;-72
2021/07/20 02:14:43;;;;;;;14.00;8.82;;;26.30;73.60;;;;;;5057035;28;20021;-72
2021/07/20 02:17:10;;;;;;;16.10;8.70;;;26.30;72.90;;;;;;5057148;28;20031;-71
2021/07/20 02:19:42;;;;;;;13.70;8.38;;;26.30;73.00;;;;;;5056814;28;20037;-73
2021/07/20 02:22:09;;;;;;;13.70;8.48;;;26.30;73.00;;;;;;5057114;28;20032;-72
2021/07/20 02:24:36;;;;;;;14.98;7.95;;;26.30;73.00;;;;;;5056605;28;20033;-73
2021/07/20 02:27:05;;;;;;;14.65;8.35;;;26.30;73.00;;;;;;5056395;28;20479;-72
2021/07/20 02:29:32;;;;;;;13.18;8.73;;;26.30;73.60;;;;;;5057054;28;20367;-72
2021/07/20 02:32:01;;;;;;;11.27;7.63;;;26.30;73.00;;;;;;5056176;28;20459;-72
2021/07/20 02:34:29;;;;;;;10.68;7.82;;;26.30;73.00;;;;;;5056199;28;20108;-72
2021/07/20 02:36:56;;;;;;;13.00;8.77;;;26.30;73.10;;;;;;5056922;28;20116;-72
2021/07/20 02:39:23;;;;;;;13.38;9.02;;;26.30;73.10;;;;;;5056570;28;20044;-72
2021/07/20 02:41:52;;;;;;;14.65;8.68;;;26.30;73.20;;;;;;5055074;28;20063;-72
2021/07/20 02:44:18;;;;;;;13.95;8.25;;;26.30;73.20;;;;;;5056334;28;20370;-72
2021/07/20 02:46:45;;;;;;;15.95;9.48;;;26.30;73.00;;;;;;5056216;28;20116;-73
2021/07/20 02:49:15;;;;;;;19.20;8.77;;;26.30;73.00;;;;;;5055860;28;20050;-72
2021/07/20 02:51:43;;;;;;;17.42;8.80;;;26.30;73.10;;;;;;5056427;28;20383;-72
2021/07/20 02:54:09;;;;;;;14.75;8.43;;;26.30;73.10;;;;;;5055049;28;20045;-72
2021/07/20 02:56:36;;;;;;;14.70;9.10;;;26.30;73.20;;;;;;5056286;28;20436;-72
2021/07/20 02:59:04;;;;;;;15.23;9.05;;;26.30;73.20;;;;;;5056256;28;20527;-73
2021/07/20 03:01:33;;;;;;;16.40;9.20;;;26.30;73.20;;;;;;5055919;28;20100;-72
2021/07/20 03:03:59;;;;;;;15.15;8.98;;;26.30;73.20;;;;;;5055838;28;20035;-72
2021/07/20 03:06:27;;;;;;;13.10;8.32;;;26.30;73.10;;;;;;5055939;28;20041;-72
2021/07/20 03:08:58;;;;;;;14.85;7.78;;;26.40;73.20;;;;;;5071194;28;20033;-72
2021/07/20 03:11:31;;;;;;;12.40;8.52;;;26.40;73.20;;;;;;5055388;28;20067;-72
2021/07/20 03:14:01;;;;;;;16.55;9.07;;;26.50;73.00;;;;;;5055359;28;20025;-72
2021/07/20 03:16:28;;;;;;;13.35;8.48;;;26.50;72.60;;;;;;5056173;28;20461;-72
2021/07/20 03:18:55;;;;;;;13.82;8.50;;;26.60;72.40;;;;;;5070927;28;20025;-72
2021/07/20 03:21:21;;;;;;;13.68;8.23;;;26.60;72.30;;;;;;5055557;28;20459;-72
2021/07/20 03:23:48;;;;;;;13.02;8.65;;;26.60;72.10;;;;;;5055548;28;20032;-72
2021/07/20 03:26:15;;;;;;;13.82;8.27;;;26.60;71.90;;;;;;5055723;28;20036;-72
2021/07/20 03:28:43;;;;;;;13.73;9.48;;;26.70;71.90;;;;;;5055388;28;20025;-72
2021/07/20 03:31:09;;;;;;;11.90;8.20;;;26.70;71.80;;;;;;5055813;28;20410;-72
2021/07/20 03:33:38;;;;;;;11.88;8.48;;;26.70;71.60;;;;;;5055331;28;20033;-72
2021/07/20 03:36:04;;;;;;;12.82;8.40;;;26.80;71.60;;;;;;5055216;28;20094;-72
2021/07/20 03:38:31;;;;;;;15.65;7.95;;;26.80;71.50;;;;;;5055194;28;20033;-71
2021/07/20 03:40:57;;;;;;;15.02;8.20;;;26.90;71.10;;;;;;5070545;28;20025;-72
2021/07/20 03:43:24;;;;;;;15.77;8.05;;;26.90;70.70;;;;;;5055152;28;20344;-72
2021/07/20 03:45:50;;;;;;;9.35;7.40;;;26.90;70.40;;;;;;5055253;28;20040;-73
2021/07/20 03:48:17;;;;;;;13.88;7.75;;;26.90;70.20;;;;;;5055093;28;20032;-72
2021/07/20 03:50:50;;;;;;;14.18;7.28;;;27.00;70.40;;;;;;5055303;28;20345;-72
2021/07/20 03:53:16;;;;;;;10.15;7.47;;;27.00;70.20;;;;;;5054755;28;20048;-72
2021/07/20 03:55:52;;;;;;;14.40;7.57;;;27.00;69.90;;;;;;5055216;28;20352;-75
2021/07/20 03:58:18;;;;;;;16.65;8.02;;;27.10;69.60;;;;;;5054856;28;20048;-72
2021/07/20 04:00:51;;;;;;;13.38;8.70;;;27.10;69.30;;;;;;5055585;28;20025;-72
2021/07/20 04:03:21;;;;;;;11.35;7.38;;;27.10;69.30;;;;;;5054929;28;20130;-72
2021/07/20 04:05:49;;;;;;;13.80;8.20;;;27.20;69.50;;;;;;5054134;28;20068;-71
2021/07/20 04:08:18;;;;;;;15.13;8.30;;;27.20;69.20;;;;;;5054704;28;20052;-73
2021/07/20 04:10:46;;;;;;;12.35;7.90;;;27.30;69.00;;;;;;5054354;28;20048;-72
2021/07/20 04:13:13;;;;;;;10.90;7.70;;;27.30;68.80;;;;;;5054363;28;20021;-72
2021/07/20 04:16:06;;;;;;;11.60;8.00;;;27.40;69.40;;;;;;5054432;28;20044;-71
2021/07/20 04:18:35;;;;;;;9.73;7.55;;;27.40;68.50;;;;;;5054596;28;20056;-71
2021/07/20 04:21:04;;;;;;;13.73;7.68;;;27.40;68.40;;;;;;5054630;28;20367;-72
2021/07/20 04:23:31;;;;;;;18.90;8.32;;;27.50;68.10;;;;;;5054678;28;20025;-72
2021/07/20 04:25:59;;;;;;;10.68;7.65;;;27.50;67.80;;;;;;5054290;28;20056;-73
2021/07/20 04:28:26;;;;;;;12.43;7.47;;;27.50;67.80;;;;;;5054302;28;20036;-72
2021/07/20 04:30:53;;;;;;;12.40;6.95;;;27.50;67.60;;;;;;5055022;28;20029;-73
2021/07/20 04:33:29;;;;;;;11.90;7.97;;;27.50;67.30;;;;;;5054533;28;20029;-73
2021/07/20 04:35:56;;;;;;;11.48;7.80;;;27.50;67.30;;;;;;5053910;28;20449;-73
2021/07/20 04:38:24;;;;;;;15.15;7.68;;;27.50;67.20;;;;;;5054145;28;20053;-73
2021/07/20 04:40:50;;;;;;;11.77;7.47;;;27.60;67.20;;;;;;5053872;28;20441;-73
2021/07/20 04:43:16;;;;;;;12.15;7.85;;;27.60;67.00;;;;;;5054067;28;20028;-71
2021/07/20 04:45:44;;;;;;;12.07;7.38;;;27.70;66.90;;;;;;5053475;28;20394;-71
2021/07/20 04:48:13;;;;;;;14.30;7.38;;;27.80;66.80;;;;;;5053953;28;20090;-72
2021/07/20 04:50:40;;;;;;;14.63;7.70;;;27.90;66.50;;;;;;5053875;28;20479;-73
2021/07/20 04:53:09;;;;;;;11.70;7.32;;;28.00;66.40;;;;;;5053799;28;20056;-73
2021/07/20 04:55:38;;;;;;;11.02;7.60;;;28.00;66.00;;;;;;5053794;28;20078;-71
2021/07/20 04:58:04;;;;;;;15.18;8.40;;;27.90;65.60;;;;;;5053916;28;20036;-71
2021/07/20 05:00:31;;;;;;;14.68;7.68;;;27.90;65.60;;;;;;5053855;28;20049;-72
2021/07/20 05:02:59;;;;;;;13.15;7.32;;;27.90;65.50;;;;;;5069553;28;20033;-72
2021/07/20 05:05:28;;;;;;;12.00;7.40;;;27.90;65.70;;;;;;5053823;28;20033;-73
2021/07/20 05:07:56;;;;;;;12.85;7.82;;;27.90;65.90;;;;;;5053933;28;20052;-73
2021/07/20 05:10:22;;;;;;;12.60;7.60;;;27.90;65.80;;;;;;5053460;28;20039;-73
2021/07/20 05:12:48;;;;;;;10.38;7.18;;;28.00;65.90;;;;;;5054113;28;20083;-73
2021/07/20 05:15:16;;;;;;;14.68;7.78;;;28.10;65.60;;;;;;5054116;28;20048;-76
2021/07/20 05:17:43;;;;;;;10.00;7.18;;;28.10;65.40;;;;;;5053359;28;20075;-73
2021/07/20 05:20:11;;;;;;;13.20;7.07;;;28.20;65.30;;;;;;5053408;28;20120;-72
2021/07/20 05:22:38;;;;;;;15.93;7.63;;;28.30;65.20;;;;;;5053901;28;20037;-73
2021/07/20 05:25:06;;;;;;;12.68;8.20;;;28.30;65.00;;;;;;5053365;28;20057;-71
2021/07/20 05:27:36;;;;;;;11.00;7.13;;;28.40;64.90;;;;;;5053277;28;20026;-72
2021/07/20 05:30:06;;;;;;;13.95;7.47;;;28.40;64.00;;;;;;5053376;28;20049;-72
2021/07/20 05:32:39;;;;;;;12.45;6.95;;;28.50;63.70;;;;;;5053243;28;20053;-71
2021/07/20 05:35:07;;;;;;;11.68;6.68;;;28.50;63.50;;;;;;5052906;28;20055;-71
2021/07/20 05:37:35;;;;;;;13.50;7.05;;;28.60;63.10;;;;;;5053146;28;20029;-71
2021/07/20 05:40:01;;;;;;;11.65;6.60;;;28.70;63.20;;;;;;5052615;28;20067;-72
2021/07/20 05:42:31;;;;;;;15.02;7.25;;;28.70;62.80;;;;;;5053129;28;20371;-71
2021/07/20 05:44:57;;;;;;;12.35;6.50;;;28.70;63.30;;;;;;5069276;28;20040;-71
2021/07/20 05:47:25;;;;;;;8.27;6.15;;;28.70;62.70;;;;;;5053329;28;20071;-72
2021/07/20 05:49:50;;;;;;;11.25;7.13;;;28.80;62.60;;;;;;5052943;28;20471;-72
2021/07/20 05:52:17;;;;;;;13.63;7.10;;;28.80;62.80;;;;;;5053120;28;20029;-72
2021/07/20 05:54:45;;;;;;;9.85;6.60;;;28.90;63.50;;;;;;5053672;28;20182;-73
2021/07/20 05:57:12;;;;;;;11.27;7.22;;;29.00;62.80;;;;;;5052958;28;20158;-74
2021/07/20 05:59:39;;;;;;;12.82;7.25;;;29.00;62.60;;;;;;5052716;28;20033;-73
2021/07/20 06:02:13;;;;;;;10.98;6.47;;;29.10;62.50;;;;;;5051737;28;20048;-72
2021/07/20 06:04:39;;;;;;;;;;;29.10;62.20;;;;;;5054252;28;20344;-72
2021/07/20 06:07:07;;;;;;;12.02;7.00;;;29.10;62.50;;;;;;5052994;28;20437;-72
2021/07/20 06:09:35;;;;;;;11.40;6.60;;;29.10;62.10;;;;;;5052588;28;20032;-72
2021/07/20 06:12:01;;;;;;;12.40;7.28;;;29.10;62.10;;;;;;5052701;28;20055;-71
2021/07/20 06:14:30;;;;;;;9.27;6.63;;;29.10;62.30;;;;;;5052811;28;20044;-72
2021/07/20 06:16:56;;;;;;;11.27;7.43;;;29.20;62.40;;;;;;5052879;28;20033;-72
2021/07/20 06:19:23;;;;;;;12.32;8.18;;;29.20;62.50;;;;;;5052669;28;20051;-72
2021/07/20 06:21:49;;;;;;;10.65;7.95;;;29.20;62.40;;;;;;5053212;28;20059;-76
2021/07/20 06:24:17;;;;;;;14.80;7.70;;;29.30;62.60;;;;;;5053133;28;20021;-72
2021/07/20 06:26:43;;;;;;;13.05;7.30;;;29.30;62.30;;;;;;5053237;28;20037;-72
2021/07/20 06:29:09;;;;;;;12.27;7.45;;;29.40;62.00;;;;;;5056378;28;20438;-72
2021/07/20 06:31:40;;;;;;;12.23;7.72;;;29.40;61.90;;;;;;5056675;28;20029;-71
2021/07/20 06:34:07;;;;;;;12.55;8.07;;;29.40;61.90;;;;;;5056487;28;20040;-72
2021/07/20 06:36:36;;;;;;;10.50;7.38;;;29.40;61.90;;;;;;5056838;28;20174;-73
2021/07/20 06:39:04;;;;;;;12.25;7.80;;;29.50;62.00;;;;;;5056028;28;20399;-73
2021/07/20 06:41:34;;;;;;;15.48;8.18;;;29.50;61.90;;;;;;5071642;28;20029;-73
2021/07/20 06:44:01;;;;;;;10.48;6.72;;;29.60;61.50;;;;;;5056497;28;20029;-73
2021/07/20 06:46:29;;;;;;;13.57;7.47;;;29.60;61.50;;;;;;5056331;28;20083;-73
2021/07/20 06:48:55;;;;;;;15.30;8.05;;;29.60;61.50;;;;;;5056950;28;20375;-73
2021/07/20 06:51:23;;;;;;;15.00;8.10;;;29.70;61.40;;;;;;5055892;28;20041;-73
2021/07/20 06:53:52;;;;;;;12.65;7.70;;;29.80;61.30;;;;;;5056449;28;20049;-72
2021/07/20 06:56:24;;;;;;;12.90;7.68;;;29.90;61.00;;;;;;5056028;28;20048;-72
2021/07/20 06:58:50;;;;;;;12.88;7.45;;;29.90;60.60;;;;;;5056063;28;20031;-72
2021/07/20 07:01:19;;;;;;;11.43;7.15;;;30.00;60.50;;;;;;5055915;28;20538;-72
2021/07/20 07:03:47;;;;;;;14.75;7.20;;;30.10;60.20;;;;;;5055475;28;20032;-71
2021/07/20 07:06:16;;;;;;;12.95;7.22;;;30.20;60.10;;;;;;5055442;28;20033;-72
2021/07/20 07:08:42;;;;;;;11.18;7.35;;;30.30;60.10;;;;;;5056534;28;20122;-72
2021/07/20 07:11:08;;;;;;;12.18;8.75;;;30.30;59.90;;;;;;5056317;28;20033;-72
2021/07/20 07:13:35;;;;;;;13.27;7.20;;;30.40;59.90;;;;;;5055665;28;20380;-72
2021/07/20 07:16:01;;;;;;;11.20;7.63;;;30.40;59.70;;;;;;5055473;28;20041;-75
2021/07/20 07:18:28;;;;;;;13.73;8.00;;;30.40;59.70;;;;;;5055470;28;20025;-73
2021/07/20 07:20:58;;;;;;;13.63;7.22;;;30.40;59.40;;;;;;5055841;28;20025;-72
2021/07/20 07:23:27;;;;;;;9.35;6.95;;;30.50;59.10;;;;;;5055407;28;20040;-73
2021/07/20 07:25:57;;;;;;;17.33;8.63;;;30.60;58.90;;;;;;5055545;28;20033;-73
2021/07/20 07:28:24;;;;;;;14.38;7.75;;;30.60;58.70;;;;;;5055159;28;20021;-73
2021/07/20 07:30:51;;;;;;;12.00;8.27;;;30.70;58.80;;;;;;5055067;28;20102;-72
2021/07/20 07:33:17;;;;;;;16.30;7.15;;;30.70;58.70;;;;;;5055223;28;20068;-73
2021/07/20 07:35:45;;;;;;;12.02;8.00;;;30.80;58.50;;;;;;5055731;28;20063;-72
2021/07/20 07:38:13;;;;;;;13.18;7.13;;;30.80;58.40;;;;;;5055019;28;20047;-73
2021/07/20 07:40:39;;;;;;;16.30;7.80;;;30.90;58.50;;;;;;5055268;28;20021;-72
2021/07/20 07:43:05;;;;;;;12.18;6.90;;;31.00;58.40;;;;;;5055005;28;20060;-73
2021/07/20 07:45:32;;;;;;;10.27;7.60;;;31.00;58.20;;;;;;5055062;28;20033;-74
2021/07/20 07:47:59;;;;;;;15.27;8.05;;;31.10;58.20;;;;;;5054652;28;20111;-73
2021/07/20 07:50:26;;;;;;;12.07;7.30;;;31.30;58.10;;;;;;5054812;28;20048;-72
2021/07/20 07:52:54;;;;;;;12.23;7.15;;;31.40;57.90;;;;;;5054457;28;20095;-74
2021/07/20 07:55:22;;;;;;;10.80;7.70;;;31.70;57.90;;;;;;5054531;28;20033;-72
2021/07/20 07:57:48;;;;;;;15.13;7.93;;;31.90;57.50;;;;;;5054900;28;20078;-73
2021/07/20 08:00:16;;;;;;;15.95;7.15;;;32.00;57.20;;;;;;5054334;28;20032;-73
2021/07/20 08:02:48;;;;;;;13.68;7.60;;;32.30;57.00;;;;;;5054562;28;20412;-74
2021/07/20 08:05:14;;;;;;;10.32;7.35;;;32.60;56.20;;;;;;5054398;28;20036;-73
2021/07/20 08:07:43;;;;;;;12.45;7.47;;;32.90;55.80;;;;;;5054363;28;20471;-72
2021/07/20 08:10:11;;;;;;;13.50;7.30;;;33.20;55.00;;;;;;5054819;28;20028;-73
2021/07/20 08:12:41;;;;;;;11.20;7.18;;;33.30;54.60;;;;;;5054779;28;20455;-73
2021/07/20 08:15:07;;;;;;;11.45;7.40;;;33.50;54.50;;;;;;5054293;28;20029;-73
2021/07/20 08:17:34;;;;;;;12.05;7.63;;;33.80;54.30;;;;;;5054367;28;20028;-73
2021/07/20 08:20:01;;;;;;;15.30;7.22;;;34.00;53.80;;;;;;5054379;28;20043;-73
2021/07/20 08:22:30;;;;;;;12.18;7.20;;;34.10;53.40;;;;;;5054842;28;20056;-72
2021/07/20 08:25:47;;;;;;;11.15;7.28;;;34.40;52.90;;;;;;5053900;28;20475;-72
2021/07/20 08:28:29;;;;;;;10.52;7.05;;;34.60;52.30;;;;;;5044839;28;20127;-72
2021/07/20 08:30:57;;;;;;;9.38;6.57;;;34.80;52.20;;;;;;5054812;28;20060;-72
2021/07/20 08:33:29;;;;;;;13.65;6.82;;;35.00;52.00;;;;;;5053863;28;20029;-73
2021/07/20 08:36:00;;;;;;;15.52;7.75;;;35.20;51.70;;;;;;5053870;28;20538;-73
2021/07/20 08:38:30;;;;;;;13.82;7.75;;;35.40;51.20;;;;;;5053963;28;20056;-74
2021/07/20 08:40:59;;;;;;;7.55;6.07;;;35.50;50.90;;;;;;5053919;28;20033;-73
2021/07/20 08:44:05;;;;;;;8.43;6.53;;;35.50;50.50;;;;;;5053958;28;20029;-72
2021/07/20 08:46:44;;;;;;;10.55;6.82;;;35.30;50.10;;;;;;5054199;28;20032;-73
2021/07/20 08:49:10;;;;;;;9.63;6.47;;;35.20;50.10;;;;;;5053698;28;20028;-73
2021/07/20 08:51:45;;;;;;;9.70;6.65;;;35.10;50.20;;;;;;5053110;28;20566;-73
2021/07/20 08:54:15;;;;;;;10.23;6.78;;;35.00;49.90;;;;;;5053926;28;20048;-73
2021/07/20 08:56:43;;;;;;;8.23;6.60;;;35.00;50.00;;;;;;5054195;28;20044;-73
2021/07/20 08:59:17;;;;;;;8.95;6.10;;;35.10;49.70;;;;;;5053486;28;20051;-72
2021/07/20 09:02:01;;;;;;;12.52;6.60;;;35.10;49.60;;;;;;5053702;28;20053;-73
2021/07/20 09:05:09;;;;;;;10.73;6.77;;;35.20;49.20;;;;;;5053660;28;20029;-73
2021/07/20 09:08:04;;;;;;;8.32;5.70;;;35.30;49.10;;;;;;5052833;28;20045;-73
2021/07/20 09:10:46;;;;;;;6.75;6.05;;;35.70;48.60;;;;;;5051917;28;20052;-72
2021/07/20 09:13:18;;;;;;;9.65;5.90;;;36.30;48.00;;;;;;5053495;28;20028;-72
2021/07/20 09:15:51;;;;;;;9.32;6.15;;;36.80;47.40;;;;;;5053154;28;20040;-73
2021/07/20 09:18:21;;;;;;;8.80;6.25;;;37.10;46.90;;;;;;5068850;28;20490;-73
2021/07/20 09:20:50;;;;;;;7.70;5.82;;;37.40;46.30;;;;;;5053966;28;20025;-72
2021/07/20 09:23:28;;;;;;;7.80;5.70;;;37.60;45.80;;;;;;5053382;28;20033;-72
2021/07/20 09:25:58;;;;;;;11.13;5.60;;;37.90;45.50;;;;;;5053369;28;20044;-72
2021/07/20 09:28:29;;;;;;;9.00;5.78;;;38.30;45.20;;;;;;5053458;28;20376;-72
2021/07/20 09:30:57;;;;;;;12.60;5.30;;;38.60;44.70;;;;;;5053416;28;20482;-75
2021/07/20 09:33:49;;;;;;;7.05;5.80;;;38.90;44.40;;;;;;5053335;28;20112;-72
2021/07/20 09:36:23;;;;;;;8.02;5.70;;;38.70;44.00;;;;;;5053470;28;20025;-72
2021/07/20 09:39:00;;;;;;;8.18;5.40;;;38.50;43.80;;;;;;5053102;28;20475;-73
2021/07/20 09:41:41;;;;;;;8.68;5.05;;;38.60;43.90;;;;;;5053048;28;20026;-73
2021/07/20 09:44:41;;;;;;;13.25;5.93;;;38.90;43.20;;;;;;5053267;28;20037;-73
2021/07/20 09:47:37;;;;;;;9.48;6.03;;;39.10;43.20;;;;;;5053318;28;20028;-73
2021/07/20 09:50:08;;;;;;;9.85;6.10;;;39.20;43.00;;;;;;5053489;28;20033;-73
2021/07/20 09:53:05;;;;;;;9.75;5.70;;;39.00;43.10;;;;;;5052901;28;20035;-73
2021/07/20 09:55:56;;;;;;;10.82;6.30;;;38.70;43.20;;;;;;5044006;28;20040;-73
2021/07/20 09:58:29;;;;;;;8.70;5.78;;;38.40;43.50;;;;;;5053100;28;20459;-73
2021/07/20 10:01:15;;;;;;;8.80;5.75;;;38.10;43.90;;;;;;5052528;28;20032;-73
2021/07/20 10:03:49;;;;;;;10.38;5.63;;;37.90;44.00;;;;;;5055329;28;20462;-73
2021/07/20 10:06:35;;;;;;;9.23;5.28;;;37.70;44.30;;;;;;5056836;28;20029;-73
2021/07/20 10:09:23;;;;;;;6.55;5.30;;;37.40;44.70;;;;;;5057151;28;20029;-74
2021/07/20 10:12:03;;;;;;;9.07;5.93;;;37.20;44.80;;;;;;5057079;28;20374;-73
2021/07/20 10:15:04;;;;;;;9.63;5.57;;;37.40;45.50;;;;;;5072146;28;20029;-72
2021/07/20 10:17:51;;;;;;;9.13;5.53;;;38.00;44.60;;;;;;5057406;28;20051;-72
2021/07/20 10:20:30;;;;;;;9.02;5.00;;;38.70;43.70;;;;;;5057210;28;20090;-73
2021/07/20 10:23:05;;;;;;;9.10;5.45;;;39.40;43.30;;;;;;5056916;28;20021;-73
2021/07/20 10:25:48;;;;;;;9.45;6.20;;;39.70;42.50;;;;;;5056480;28;20055;-73
2021/07/20 10:28:23;;;;;;;8.07;5.93;;;40.00;42.60;;;;;;5056983;28;20150;-75
2021/07/20 10:31:09;;;;;;;8.63;6.05;;;40.10;42.00;;;;;;5056623;28;20450;-73
2021/07/20 10:33:45;;;;;;;11.13;5.95;;;40.40;41.70;;;;;;5056655;28;20021;-74
2021/07/20 10:36:19;;;;;;;10.07;5.72;;;40.60;41.40;;;;;;5056148;28;20040;-73
2021/07/20 10:38:51;;;;;;;7.07;5.22;;;40.90;41.00;;;;;;5055658;28;20367;-74
2021/07/20 10:41:23;;;;;;;7.57;5.88;;;41.00;41.10;;;;;;5056714;28;20029;-73
2021/07/20 10:44:13;;;;;;;6.70;5.50;;;40.70;40.70;;;;;;5072370;28;20375;-73
2021/07/20 10:46:41;;;;;;;9.25;5.70;;;40.40;41.00;;;;;;5056158;28;20064;-73
2021/07/20 10:49:22;;;;;;;12.90;6.10;;;40.00;41.30;;;;;;5056038;28;20123;-74
2021/07/20 10:51:55;;;;;;;10.80;5.68;;;39.80;41.30;;;;;;5055774;28;20029;-71
2021/07/20 10:54:26;;;;;;;;;;;40.00;41.30;;;;;;5056660;28;20045;-72
2021/07/20 10:56:58;;;;;;;11.38;5.72;;;40.30;41.70;;;;;;5071366;28;20265;-73
2021/07/20 11:00:05;;;;;;;6.90;5.70;;;40.80;41.10;;;;;;5055668;28;20040;-73
2021/07/20 11:02:48;;;;;;;8.98;5.90;;;41.10;40.70;;;;;;5054992;28;20073;-72
2021/07/20 11:05:16;;;;;;;9.65;5.85;;;41.00;40.50;;;;;;5056187;28;20028;-73
2021/07/20 11:07:54;;;;;;;9.63;5.95;;;40.90;40.30;;;;;;5056485;28;20029;-72
2021/07/20 11:10:33;;;;;;;8.35;5.35;;;40.70;40.40;;;;;;5055767;28;20035;-73
2021/07/20 11:13:05;;;;;;;9.95;5.57;;;41.10;40.20;;;;;;5055333;28;20032;-72
2021/07/20 11:15:34;;;;;;;7.80;5.70;;;41.80;39.90;;;;;;5055847;28;20033;-75
2021/07/20 11:18:18;;;;;;;8.70;5.65;;;42.30;39.60;;;;;;5055784;28;20367;-73
2021/07/20 11:20:45;;;;;;;10.70;6.10;;;43.00;39.40;;;;;;5055553;28;20211;-74
2021/07/20 11:23:12;;;;;;;9.20;5.57;;;43.50;38.90;;;;;;5055698;28;20044;-75
2021/07/20 11:25:40;;;;;;;11.63;5.82;;;43.60;38.40;;;;;;5055785;28;20036;-73
2021/07/20 11:28:06;;;;;;;10.43;5.63;;;43.60;38.50;;;;;;5055632;28;20110;-73
2021/07/20 11:30:35;;;;;;;9.48;5.97;;;43.30;38.50;;;;;;5055499;28;20045;-74
2021/07/20 11:33:20;;;;;;;6.70;5.32;;;43.30;38.70;;;;;;5055841;28;20441;-76
2021/07/20 11:35:50;;;;;;;8.18;5.90;;;43.30;38.70;;;;;;5055745;28;20035;-72
2021/07/20 11:38:20;;;;;;;11.45;6.05;;;43.60;38.70;;;;;;5055666;28;20064;-74
2021/07/20 11:41:09;;;;;;;7.05;5.50;;;43.60;38.60;;;;;;5055988;28;20083;-73
2021/07/20 11:43:48;;;;;;;8.68;5.85;;;43.50;38.70;;;;;;5056423;28;20035;-73
2021/07/20 11:46:18;;;;;;;6.57;5.43;;;43.30;38.90;;;;;;5070950;28;20463;-73
2021/07/20 11:48:59;;;;;;;11.38;5.90;;;43.20;38.90;;;;;;5055285;28;20423;-73
2021/07/20 11:51:31;;;;;;;7.35;5.97;;;43.10;39.20;;;;;;5055092;28;20025;-73
2021/07/20 11:54:23;;;;;;;8.27;5.75;;;43.00;38.90;;;;;;5055351;28;20045;-74
2021/07/20 11:56:58;;;;;;;7.00;5.68;;;42.70;39.20;;;;;;5055155;28;20033;-74
2021/07/20 11:59:42;;;;;;;8.88;5.90;;;42.30;39.30;;;;;;5055063;28;20417;-74
2021/07/20 12:02:47;;;;;;;8.93;6.35;;;41.90;39.60;;;;;;5055207;28;20108;-72
2021/07/20 12:05:41;;;;;;;11.45;6.10;;;41.70;39.80;;;;;;5055014;28;20033;-72
2021/07/20 12:08:27;;;;;;;14.75;5.75;;;41.90;40.10;;;;;;5054959;28;20098;-72
2021/07/20 12:11:03;;;;;;;7.80;5.70;;;42.60;40.00;;;;;;5054765;28;20044;-73
2021/07/20 12:13:30;;;;;;;7.60;6.03;;;43.30;39.30;;;;;;5056047;28;20067;-72
2021/07/20 12:15:57;;;;;;;7.95;6.20;;;43.80;38.70;;;;;;5056190;28;20035;-72
2021/07/20 12:18:22;;;;;;;9.52;5.90;;;44.20;38.40;;;;;;5059049;28;20060;-75
2021/07/20 12:20:50;;;;;;;10.52;5.93;;;44.60;38.00;;;;;;5059131;28;20029;-74
2021/07/20 12:23:17;;;;;;;9.50;5.30;;;44.80;37.60;;;;;;5060321;28;20029;-73
2021/07/20 12:25:43;;;;;;;7.05;5.53;;;44.70;37.40;;;;;;5057311;28;20032;-74
2021/07/20 12:28:09;;;;;;;9.05;5.65;;;44.80;37.50;;;;;;5059173;28;20031;-73
2021/07/20 12:30:36;;;;;;;8.02;5.53;;;44.70;37.40;;;;;;5058899;28;20101;-74
2021/07/20 12:33:10;;;;;;;8.35;5.50;;;44.50;37.40;;;;;;5074682;28;20116;-72
2021/07/20 12:35:39;;;;;;;12.02;5.93;;;44.10;37.20;;;;;;5058714;28;20082;-73
2021/07/20 12:38:08;;;;;;;7.68;5.18;;;43.80;37.30;;;;;;5057710;28;20452;-75
2021/07/20 12:40:36;;;;;;;7.68;5.88;;;43.50;37.60;;;;;;5057759;28;20025;-74
2021/07/20 12:43:09;;;;;;;5.93;5.35;;;44.00;37.80;;;;;;5058482;28;20072;-75
2021/07/20 12:45:36;;;;;;;12.48;6.05;;;44.80;37.40;;;;;;5054596;28;20032;-72
2021/07/20 12:48:02;;;;;;;8.55;5.43;;;45.50;37.00;;;;;;5054070;28;20056;-74
2021/07/20 12:50:28;;;;;;;8.30;5.60;;;45.80;36.50;;;;;;5053802;28;20029;-74
2021/07/20 12:52:55;;;;;;;9.15;5.53;;;45.90;36.20;;;;;;5053994;28;20080;-75
2021/07/20 12:55:23;;;;;;;9.48;5.28;;;45.80;36.30;;;;;;5053892;28;20040;-72
2021/07/20 12:57:54;;;;;;;10.80;5.65;;;45.70;36.50;;;;;;5053524;28;20017;-72
2021/07/20 13:00:23;;;;;;;9.20;5.85;;;45.80;36.20;;;;;;5053412;28;20029;-74
2021/07/20 13:02:51;;;;;;;6.82;5.70;;;46.10;36.10;;;;;;5053483;28;20032;-73